Time;durP1;ratioP1;P1;durP2;ratioP2;P2;SDS_P1;SDS_P2;PMS_P1;PMS_P2;Temp;Humidity;BMP_temperature;BMP_pressure;BME280_temperature;BME280_humidity;BME280_pressure;Samples;Min_cycle;Max_cycle;Signal;HPM_P1;HPM_P2
2023/04/01 00:02:50;;;;;;;4.45;2.05;;;;;;;7.97;100.00;99061.94;10360777;28;20421;-75
2023/04/01 00:07:51;;;;;;;3.05;1.55;;;;;;;7.93;100.00;99054.03;10358102;28;20525;-76
2023/04/01 00:12:51;;;;;;;9.38;3.05;;;;;;;7.91;100.00;99053.09;10358648;28;20042;-76
2023/04/01 00:17:52;;;;;;;7.60;2.47;;;;;;;7.94;100.00;99054.91;10342273;28;20125;-76
2023/04/01 00:22:52;;;;;;;2.80;1.17;;;;;;;7.97;100.00;99046.31;10368912;28;20128;-76
2023/04/01 00:27:52;;;;;;;3.00;1.00;;;;;;;7.96;100.00;99052.34;10360340;28;20066;-76
2023/04/01 00:32:53;;;;;;;1.65;1.10;;;;;;;7.97;100.00;99054.13;10373724;28;20125;-75
2023/04/01 00:37:54;;;;;;;4.75;1.17;;;;;;;7.96;100.00;99055.84;10358819;28;20076;-76
2023/04/01 00:42:55;;;;;;;4.67;1.10;;;;;;;7.96;100.00;99037.63;10391310;28;20052;-75
2023/04/01 00:47:56;;;;;;;1.83;0.80;;;;;;;7.93;100.00;99042.75;10344501;28;20045;-76
2023/04/01 00:52:57;;;;;;;2.97;1.55;;;;;;;7.97;100.00;99046.31;10329153;28;20383;-76
2023/04/01 00:57:59;;;;;;;2.47;1.10;;;;;;;7.90;100.00;99040.91;10349032;28;20042;-76
2023/04/01 01:03:00;;;;;;;3.50;0.70;;;;;;;7.86;100.00;99054.69;10365039;28;20366;-76
2023/04/01 01:08:12;;;;;;;4.25;1.30;;;;;;;7.90;100.00;99059.16;10364651;28;20061;-76
2023/04/01 01:13:21;;;;;;;2.10;1.05;;;;;;;7.82;100.00;99054.56;10331704;28;20065;-76
2023/04/01 01:18:35;;;;;;;1.85;0.80;;;;;;;7.78;100.00;99061.38;10365101;28;20046;-77
2023/04/01 01:24:13;;;;;;;2.10;0.82;;;;;;;7.72;100.00;99056.00;10364276;28;20061;-76
2023/04/01 01:29:20;;;;;;;4.55;1.13;;;;;;;7.74;100.00;99063.03;10369377;28;20489;-76
2023/04/01 01:34:51;;;;;;;3.42;1.00;;;;;;;7.73;100.00;99062.97;10373355;28;20464;-76
2023/04/01 01:39:57;;;;;;;3.70;1.00;;;;;;;7.70;100.00;99055.97;10363589;28;20096;-76
2023/04/01 01:44:59;;;;;;;2.85;1.35;;;;;;;7.70;100.00;99062.88;10346814;28;20413;-76
2023/04/01 01:50:01;;;;;;;2.67;1.10;;;;;;;7.69;100.00;99069.81;10381854;28;20042;-76
2023/04/01 01:55:01;;;;;;;2.85;1.25;;;;;;;7.68;100.00;99070.66;10366198;28;20497;-76
2023/04/01 02:00:12;;;;;;;3.53;1.08;;;;;;;7.72;100.00;99064.72;10362306;28;20037;-77
2023/04/01 02:05:18;;;;;;;3.38;1.33;;;;;;;7.70;100.00;99074.19;10382813;28;20042;-76
2023/04/01 02:10:19;;;;;;;4.65;1.30;;;;;;;7.70;100.00;99078.50;10360703;28;20044;-76
2023/04/01 02:15:19;;;;;;;2.42;1.20;;;;;;;7.70;100.00;99065.47;10346113;28;20448;-76
2023/04/01 02:20:21;;;;;;;4.55;2.33;;;;;;;7.68;100.00;99090.59;10366263;28;20535;-76
2023/04/01 02:25:27;;;;;;;4.50;1.60;;;;;;;7.68;100.00;99090.59;10349566;28;20366;-76
2023/04/01 02:30:29;;;;;;;4.60;1.73;;;;;;;7.70;100.00;99076.78;10345544;28;20034;-76
2023/04/01 02:35:29;;;;;;;4.63;2.10;;;;;;;7.71;100.00;99083.78;10343275;28;20038;-76
2023/04/01 02:40:34;;;;;;;5.40;1.80;;;;;;;7.70;100.00;99083.72;10361763;28;20572;-76
2023/04/01 02:45:35;;;;;;;8.85;1.92;;;;;;;7.69;100.00;99082.84;10359819;28;20034;-76
2023/04/01 02:50:35;;;;;;;2.72;1.20;;;;;;;7.69;100.00;99101.06;10361394;28;20129;-76
2023/04/01 02:55:36;;;;;;;4.10;2.38;;;;;;;7.70;100.00;99096.72;10359825;28;20536;-76
2023/04/01 03:00:37;;;;;;;4.78;1.77;;;;;;;7.67;100.00;99094.94;10360588;28;20037;-75
2023/04/01 03:05:37;;;;;;;7.45;2.83;;;;;;;7.69;100.00;99107.97;10375460;28;20096;-75
2023/04/01 03:10:38;;;;;;;4.63;2.33;;;;;;;7.70;100.00;99096.72;10360922;28;20058;-76
2023/04/01 03:15:38;;;;;;;6.32;2.35;;;;;;;7.68;100.00;99106.22;10360805;28;20549;-76
2023/04/01 03:20:39;;;;;;;7.15;2.95;;;;;;;7.68;100.00;99112.31;10358969;28;20121;-76
2023/04/01 03:25:39;;;;;;;5.85;3.20;;;;;;;7.66;100.00;99119.19;10340600;28;20455;-76
2023/04/01 03:30:40;;;;;;;4.55;2.70;;;;;;;7.61;100.00;99116.44;10320280;28;20088;-75
2023/04/01 03:35:40;;;;;;;7.45;4.03;;;;;;;7.63;100.00;99121.72;10406174;28;20132;-76
2023/04/01 03:40:42;;;;;;;13.45;4.05;;;;;;;7.66;100.00;99126.13;10342299;28;20068;-77
2023/04/01 03:45:44;;;;;;;10.15;4.47;;;;;;;7.64;100.00;99131.28;10380596;28;20041;-77
2023/04/01 03:50:46;;;;;;;10.27;4.50;;;;;;;7.61;100.00;99129.47;10393109;28;20040;-77
2023/04/01 03:55:46;;;;;;;9.30;4.57;;;;;;;7.60;100.00;99130.28;10355557;28;20066;-76
2023/04/01 04:00:47;;;;;;;7.95;4.18;;;;;;;7.59;100.00;99136.34;10328847;28;20125;-75
2023/04/01 04:05:48;;;;;;;9.30;4.63;;;;;;;7.57;100.00;99129.31;10349234;28;20069;-76
2023/04/01 04:10:54;;;;;;;9.25;4.82;;;;;;;7.64;100.00;99134.75;10355612;28;20485;-76
2023/04/01 04:15:55;;;;;;;7.75;4.45;;;;;;;7.62;100.00;99140.78;10362979;28;20042;-75
2023/04/01 04:20:58;;;;;;;7.43;4.38;;;;;;;7.59;100.00;99151.97;10344009;28;20034;-75
2023/04/01 04:26:00;;;;;;;7.50;4.53;;;;;;;7.59;100.00;99156.28;10368028;28;20057;-76
2023/04/01 04:31:01;;;;;;;8.25;5.55;;;;;;;7.52;100.00;99157.81;10335549;28;20039;-76
2023/04/01 04:36:02;;;;;;;8.40;5.30;;;;;;;7.49;100.00;99156.00;10340604;28;20486;-76
2023/04/01 04:41:02;;;;;;;10.80;6.57;;;;;;;7.52;100.00;99159.53;10407243;28;20087;-76
2023/04/01 04:46:09;;;;;;;8.27;5.38;;;;;;;7.53;100.00;99163.91;10365500;28;20461;-76
2023/04/01 04:51:14;;;;;;;10.85;6.85;;;;;;;7.53;100.00;99163.91;10364811;28;20037;-76
2023/04/01 04:56:21;;;;;;;14.45;8.48;;;;;;;7.49;100.00;99175.91;10362211;28;20125;-76
2023/04/01 05:01:22;;;;;;;12.10;7.57;;;;;;;7.50;100.00;99175.09;10370607;28;20096;-76
2023/04/01 05:06:22;;;;;;;11.93;8.00;;;;;;;7.47;100.00;99196.72;10368940;28;20084;-75
2023/04/01 05:11:23;;;;;;;12.25;8.02;;;;;;;7.46;100.00;99188.84;10366611;28;20052;-76
2023/04/01 05:16:24;;;;;;;13.63;8.82;;;;;;;7.47;100.00;99186.31;10360880;28;20038;-77
2023/04/01 05:21:24;;;;;;;13.63;9.25;;;;;;;7.44;100.00;99196.63;10361857;28;20172;-75
2023/04/01 05:26:25;;;;;;;24.40;8.63;;;;;;;7.46;100.00;99197.53;10353692;28;20124;-74
2023/04/01 05:31:25;;;;;;;19.50;10.45;;;;;;;7.43;100.00;99212.16;10354128;28;20108;-75
2023/04/01 05:36:29;;;;;;;12.77;9.55;;;;;;;7.43;100.00;99207.84;10331423;28;20567;-75
2023/04/01 05:41:29;;;;;;;11.73;8.30;;;;;;;7.42;100.00;99211.28;10362384;28;20046;-75
2023/04/01 05:46:30;;;;;;;13.00;9.00;;;;;;;7.44;100.00;99224.34;10373940;28;20141;-75
2023/04/01 05:51:31;;;;;;;13.07;7.97;;;;;;;7.41;100.00;99225.13;10362269;28;20041;-76
2023/04/01 05:56:31;;;;;;;14.10;8.82;;;;;;;7.44;100.00;99229.56;10340883;28;20512;-76
2023/04/01 06:01:32;;;;;;;8.95;5.93;;;;;;;7.42;100.00;99237.31;10365503;28;20122;-76
2023/04/01 06:06:32;;;;;;;10.57;6.80;;;;;;;7.46;100.00;99233.09;10359587;28;20516;-75
2023/04/01 06:11:37;;;;;;;10.43;7.43;;;;;;;7.43;100.00;99249.50;10356672;28;20042;-75
2023/04/01 06:16:50;;;;;;;9.82;6.40;;;;;;;7.46;100.00;99265.22;10359807;28;20037;-76
2023/04/01 06:22:21;;;;;;;14.13;7.15;;;;;;;7.48;100.00;99260.06;10361383;28;20095;-76
2023/04/01 06:27:30;;;;;;;12.38;7.45;;;;;;;7.44;100.00;99258.19;10341503;28;20449;-76
2023/04/01 06:33:07;;;;;;;12.20;8.23;;;;;;;7.46;100.00;99264.31;10359196;28;20030;-76
2023/04/01 06:38:32;;;;;;;12.13;7.53;;;;;;;7.45;100.00;99283.38;10374187;28;20042;-76
2023/04/01 06:43:36;;;;;;;13.32;8.50;;;;;;;7.47;100.00;99284.31;10357408;28;20133;-77
2023/04/01 06:49:15;;;;;;;12.30;8.13;;;;;;;7.47;100.00;99280.03;10360039;28;20121;-77
2023/04/01 06:54:20;;;;;;;11.43;8.30;;;;;;;7.48;100.00;99301.72;10359221;28;20497;-77
2023/04/01 06:59:45;;;;;;;12.45;7.40;;;;;;;7.49;100.00;99301.78;10359845;28;20056;-75
2023/04/01 07:04:50;;;;;;;11.00;7.10;;;;;;;7.51;100.00;99308.75;10375099;28;20041;-75
2023/04/01 07:09:52;;;;;;;10.68;7.28;;;;;;;7.54;100.00;99321.88;10341537;28;20034;-78
2023/04/01 07:14:53;;;;;;;11.27;7.28;;;;;;;7.59;100.00;99320.31;10325473;28;20037;-76
2023/04/01 07:20:06;;;;;;;8.90;6.20;;;;;;;7.60;100.00;99325.56;10359720;28;20037;-77
2023/04/01 07:25:16;;;;;;;9.40;5.95;;;;;;;7.66;100.00;99335.34;10376897;28;20398;-77
2023/04/01 07:30:20;;;;;;;9.15;6.03;;;;;;;7.70;100.00;99339.81;10358670;28;20045;-77
2023/04/01 07:35:34;;;;;;;8.18;5.60;;;;;;;7.70;100.00;99355.44;10345170;28;20393;-77
2023/04/01 07:40:59;;;;;;;9.30;4.80;;;;;;;7.79;100.00;99357.47;10349580;28;20847;-76
2023/04/01 07:46:02;;;;;;;7.70;5.03;;;;;;;7.86;100.00;99366.38;10343595;28;20044;-78
2023/04/01 07:51:21;;;;;;;8.07;6.10;;;;;;;7.90;100.00;99371.75;10351344;28;20120;-76
2023/04/01 07:56:39;;;;;;;8.48;6.25;;;;;;;7.86;100.00;99382.88;10357325;28;20038;-77
2023/04/01 08:02:12;;;;;;;8.93;6.10;;;;;;;7.88;100.00;99383.81;10383415;28;20413;-76
2023/04/01 08:07:23;;;;;;;11.95;7.43;;;;;;;7.96;100.00;99396.22;10332459;28;20121;-77
2023/04/01 08:12:30;;;;;;;9.75;6.78;;;;;;;8.05;100.00;99397.44;10367211;28;20091;-78
2023/04/01 08:17:36;;;;;;;8.77;6.40;;;;;;;8.03;100.00;99406.94;10367275;28;20458;-75
2023/04/01 08:23:04;;;;;;;9.38;7.15;;;;;;;8.12;100.00;99416.78;10365844;28;20507;-76
2023/04/01 08:28:13;;;;;;;13.50;8.20;;;;;;;8.11;100.00;99429.75;10336167;28;20433;-76
2023/04/01 08:33:22;;;;;;;13.55;8.98;;;;;;;8.11;100.00;99441.06;10327126;28;20048;-75
2023/04/01 08:39:01;;;;;;;14.65;10.63;;;;;;;8.23;100.00;99435.41;10381023;28;20453;-76
2023/04/01 08:44:10;;;;;;;12.32;9.82;;;;;;;8.40;100.00;99445.50;10365094;28;20092;-75
2023/04/01 08:49:45;;;;;;;17.95;10.32;;;;;;;8.70;100.00;99448.25;10366090;28;20049;-75
2023/04/01 08:55:00;;;;;;;17.25;10.10;;;;;;;9.49;100.00;99448.06;10365528;28;20079;-76
2023/04/01 09:00:08;;;;;;;15.65;9.07;;;;;;;9.60;100.00;99458.81;10375271;28;20045;-75
2023/04/01 09:05:39;;;;;;;12.82;8.52;;;;;;;9.40;100.00;99464.34;10365777;28;20046;-75
2023/04/01 09:10:43;;;;;;;10.70;7.35;;;;;;;9.17;100.00;99473.19;10358574;28;20048;-74
2023/04/01 09:16:13;;;;;;;10.25;6.13;;;;;;;9.02;100.00;99473.63;10364182;28;20038;-75
2023/04/01 09:21:34;;;;;;;9.15;6.30;;;;;;;9.16;100.00;99487.09;10362043;28;20531;-75
2023/04/01 09:27:02;;;;;;;7.97;5.33;;;;;;;9.59;100.00;99491.00;10369675;28;20095;-75
2023/04/01 09:32:16;;;;;;;5.97;3.97;;;;;;;9.95;100.00;99495.53;10340402;28;20427;-75
2023/04/01 09:37:32;;;;;;;8.15;4.32;;;;;;;10.37;100.00;99485.28;10354133;28;20057;-75
2023/04/01 09:43:03;;;;;;;6.82;4.70;;;;;;;10.93;100.00;99484.09;10341454;28;20039;-77
2023/04/01 09:48:15;;;;;;;6.43;3.83;;;;;;;11.42;100.00;99502.69;10381416;28;20507;-75
2023/04/01 09:53:15;;;;;;;6.85;4.32;;;;;;;11.72;100.00;99506.84;10384020;28;20489;-76
2023/04/01 09:58:28;;;;;;;6.03;4.03;;;;;;;11.24;100.00;99505.78;10388993;28;20038;-75
2023/04/01 10:03:33;;;;;;;;;;;;;;;10.83;100.00;99517.03;10364361;28;20493;-75
2023/04/01 10:09:11;;;;;;;9.40;5.50;;;;;;;10.33;100.00;99523.56;10360574;28;20369;-76
2023/04/01 10:14:11;;;;;;;9.40;5.22;;;;;;;9.94;100.00;99534.69;10400683;28;20107;-76
2023/04/01 10:19:34;;;;;;;10.35;5.65;;;;;;;9.58;100.00;99554.53;10367383;28;20049;-77
2023/04/01 10:25:02;;;;;;;10.23;7.13;;;;;;;9.33;100.00;99564.22;10357519;28;20555;-77
2023/04/01 10:30:24;;;;;;;9.20;6.55;;;;;;;9.33;100.00;99572.06;10358069;28;20045;-76
2023/04/01 10:35:24;;;;;;;6.85;4.50;;;;;;;9.23;100.00;99575.19;10366295;28;20389;-76
2023/04/01 10:40:37;;;;;;;11.00;6.95;;;;;;;9.10;100.00;99586.97;10361713;28;20038;-77
2023/04/01 10:46:14;;;;;;;13.40;9.20;;;;;;;9.04;100.00;99585.03;10361421;28;20041;-77
2023/04/01 10:51:18;;;;;;;14.40;8.80;;;;;;;9.21;100.00;99595.16;10344737;28;20069;-76
2023/04/01 10:56:42;;;;;;;13.73;9.35;;;;;;;9.08;100.00;99586.91;10366469;28;20045;-77
2023/04/01 11:02:08;;;;;;;10.77;8.75;;;;;;;9.20;100.00;99601.22;10362764;28;20049;-75
2023/04/01 11:07:48;;;;;;;18.05;8.45;;;;;;;9.17;100.00;99601.09;10348675;28;20095;-76
2023/04/01 11:13:20;;;;;;;13.65;9.93;;;;;;;9.24;100.00;99608.31;10231915;29;20062;-76
2023/04/01 11:18:32;;;;;;;12.05;7.65;;;;;;;9.17;100.00;99609.84;10337615;28;20046;-76
2023/04/01 11:23:33;;;;;;;;;;;;;;;9.33;100.00;99619.06;10361599;28;20038;-76
2023/04/01 11:28:39;;;;;;;10.18;6.40;;;;;;;9.51;100.00;99615.25;10357544;28;20369;-76
2023/04/01 11:34:16;;;;;;;9.60;5.55;;;;;;;9.73;100.00;99626.38;10354593;28;20273;-77
2023/04/01 11:39:29;;;;;;;10.27;6.75;;;;;;;9.63;100.00;99630.44;10339956;28;20050;-77
2023/04/01 11:44:30;;;;;;;6.25;4.43;;;;;;;9.58;100.00;99634.63;10350654;28;20045;-77
2023/04/01 11:49:51;;;;;;;5.60;4.25;;;;;;;9.48;100.00;99643.88;10341815;28;20061;-77
2023/04/01 11:55:30;;;;;;;7.25;4.10;;;;;;;9.49;100.00;99650.88;10354977;28;20485;-76
2023/04/01 12:00:48;;;;;;;9.55;8.55;;;;;;;9.62;100.00;99655.66;10358536;28;20401;-76
2023/04/01 12:05:58;;;;;;;9.15;6.50;;;;;;;9.61;100.00;99668.69;10357091;28;21536;-76
2023/04/01 12:11:18;;;;;;;4.57;2.95;;;;;;;9.55;100.00;99672.88;10358880;28;20045;-75
2023/04/01 12:16:25;;;;;;;5.70;2.65;;;;;;;9.61;100.00;99679.16;10349039;28;20076;-76
2023/04/01 12:21:31;;;;;;;5.53;3.65;;;;;;;9.46;100.00;99679.50;10357298;28;20045;-76
2023/04/01 12:26:43;;;;;;;5.55;3.60;;;;;;;9.45;100.00;99688.19;10341245;28;20128;-76
2023/04/01 12:31:51;;;;;;;6.32;3.65;;;;;;;9.44;100.00;99695.16;10358391;28;20489;-76
2023/04/01 12:37:15;;;;;;;6.72;3.88;;;;;;;9.52;100.00;99711.06;10358991;28;20046;-76
2023/04/01 12:42:41;;;;;;;5.88;3.58;;;;;;;9.57;100.00;99706.00;10343532;28;20439;-76
2023/04/01 12:48:02;;;;;;;5.53;3.70;;;;;;;9.97;100.00;99702.06;10364526;28;20053;-76
2023/04/01 12:53:18;;;;;;;6.60;3.60;;;;;;;10.28;100.00;99700.38;10366631;28;20038;-76
2023/04/01 12:58:37;;;;;;;5.82;3.55;;;;;;;10.27;100.00;99707.34;10367094;28;20136;-75
2023/04/01 13:03:47;;;;;;;5.68;3.13;;;;;;;10.05;100.00;99704.91;10360673;28;20486;-75
2023/04/01 13:08:57;;;;;;;5.70;4.97;;;;;;;9.97;100.00;99715.13;10358231;28;20038;-76
2023/04/01 13:14:13;;;;;;;4.45;2.47;;;;;;;9.88;100.00;99728.78;10366621;28;20038;-76
2023/04/01 13:19:22;;;;;;;5.30;3.50;;;;;;;9.55;100.00;99742.50;10361991;28;20053;-76
2023/04/01 13:24:23;;;;;;;5.53;2.55;;;;;;;9.66;100.00;99748.97;10363529;28;20498;-76
2023/04/01 13:29:41;;;;;;;6.57;4.18;;;;;;;9.52;100.00;99755.47;10365491;28;20045;-76
2023/04/01 13:34:56;;;;;;;4.63;2.72;;;;;;;9.58;100.00;99762.63;10362433;28;20034;-76
2023/04/01 13:40:15;;;;;;;4.97;2.95;;;;;;;9.55;100.00;99776.47;10362258;28;20050;-76
2023/04/01 13:45:35;;;;;;;5.00;2.88;;;;;;;9.37;100.00;99769.78;10360597;28;20429;-76
2023/04/01 13:50:38;;;;;;;6.10;4.10;;;;;;;9.25;100.00;99772.84;10363345;28;20087;-75
2023/04/01 13:55:53;;;;;;;6.25;3.53;;;;;;;9.30;100.00;99779.97;10363395;28;20065;-75
2023/04/01 14:01:02;;;;;;;6.70;3.22;;;;;;;9.39;100.00;99791.59;10361918;28;20049;-76
2023/04/01 14:06:29;;;;;;;6.85;4.25;;;;;;;9.19;100.00;99784.78;10377203;28;20529;-77
2023/04/01 14:11:51;;;;;;;4.45;2.80;;;;;;;9.13;100.00;99793.31;10324104;28;20125;-78
2023/04/01 14:17:03;;;;;;;6.45;3.85;;;;;;;9.07;100.00;99804.38;10328114;28;20045;-76
2023/04/01 14:22:12;;;;;;;7.90;3.85;;;;;;;9.20;100.00;99807.44;10361889;28;20118;-76
2023/04/01 14:27:19;;;;;;;8.55;4.88;;;;;;;9.19;100.00;99808.28;10361393;28;20042;-75
2023/04/01 14:32:47;;;;;;;4.75;3.33;;;;;;;9.20;100.00;99812.66;10362675;28;20041;-76
2023/04/01 14:38:11;;;;;;;8.07;4.35;;;;;;;9.23;100.00;99824.13;10359087;28;20038;-76
2023/04/01 14:43:44;;;;;;;6.97;3.92;;;;;;;9.19;100.00;99826.56;10360943;28;20038;-76
2023/04/01 14:49:11;;;;;;;5.63;3.60;;;;;;;9.01;100.00;99834.63;10282786;28;20034;-76
2023/04/01 14:54:22;;;;;;;5.97;3.55;;;;;;;8.91;100.00;99836.88;10350238;28;20112;-74
2023/04/01 14:59:23;;;;;;;6.73;3.90;;;;;;;8.94;100.00;99838.69;10360273;28;20029;-75
2023/04/01 15:04:29;;;;;;;6.63;4.60;;;;;;;8.95;100.00;99845.69;10358710;28;20417;-77
2023/04/01 15:10:03;;;;;;;6.25;4.18;;;;;;;8.94;100.00;99849.13;10359539;28;20041;-77
2023/04/01 15:15:55;;;;;;;10.10;6.40;;;;;;;8.78;100.00;99868.53;10359983;28;20046;-77
2023/04/01 15:21:07;;;;;;;7.82;5.18;;;;;;;8.66;100.00;99876.75;10309937;28;20049;-76
2023/04/01 15:26:14;;;;;;;;;;;;;;;8.59;100.00;99869.53;10365898;28;20050;-76
2023/04/01 15:31:40;;;;;;;10.45;6.97;;;;;;;8.49;100.00;99876.13;10364525;28;19921;-77
2023/04/01 15:36:43;;;;;;;8.68;5.80;;;;;;;8.49;100.00;99884.81;10366592;28;20041;-78
2023/04/01 15:42:01;;;;;;;10.10;4.93;;;;;;;8.50;100.00;99894.41;10366621;28;20441;-76
2023/04/01 15:47:02;;;;;;;8.32;5.63;;;;;;;8.44;100.00;99901.09;10356831;28;20069;-75
2023/04/01 15:52:18;;;;;;;8.48;5.43;;;;;;;8.38;100.00;99904.31;10340668;28;20122;-75
2023/04/01 15:57:33;;;;;;;8.13;4.88;;;;;;;8.32;100.00;99904.97;10342091;28;20061;-75
2023/04/01 16:02:46;;;;;;;10.13;5.60;;;;;;;8.28;100.00;99912.56;10358245;28;20038;-75
2023/04/01 16:08:28;;;;;;;11.10;6.30;;;;;;;8.22;100.00;99914.09;10364261;28;20049;-75
2023/04/01 16:13:38;;;;;;;10.20;5.63;;;;;;;8.19;100.00;99921.78;10329785;28;20061;-75
2023/04/01 16:18:50;;;;;;;10.18;5.90;;;;;;;8.26;100.00;99930.78;10383093;28;20041;-76
2023/04/01 16:24:12;;;;;;;6.85;4.45;;;;;;;8.19;100.00;99934.81;10368295;28;20125;-76
2023/04/01 16:29:28;;;;;;;8.53;5.20;;;;;;;8.21;100.00;99943.59;10350711;28;20049;-76
2023/04/01 16:34:34;;;;;;;8.45;5.18;;;;;;;8.17;100.00;99941.69;10395589;28;20784;-75
2023/04/01 16:40:01;;;;;;;9.35;5.07;;;;;;;8.18;100.00;99945.22;10348860;28;20050;-75
2023/04/01 16:45:07;;;;;;;8.93;4.65;;;;;;;8.11;100.00;99948.38;10362407;28;20092;-77
2023/04/01 16:50:20;;;;;;;7.45;3.40;;;;;;;8.06;100.00;99950.78;10378444;28;20042;-75
2023/04/01 16:55:21;;;;;;;10.65;4.85;;;;;;;8.05;100.00;99964.63;10365615;28;20034;-75
2023/04/01 17:00:38;;;;;;;7.13;3.55;;;;;;;7.98;100.00;99970.38;10371457;28;20034;-76
2023/04/01 17:06:03;;;;;;;5.70;3.60;;;;;;;7.94;100.00;99974.59;10342149;28;20048;-75
2023/04/01 17:11:19;;;;;;;12.85;7.28;;;;;;;7.91;100.00;99977.06;10366958;28;20042;-76
2023/04/01 17:16:41;;;;;;;8.15;5.53;;;;;;;7.87;100.00;99988.19;10378422;28;20050;-76
2023/04/01 17:21:41;;;;;;;9.38;5.25;;;;;;;7.83;100.00;99994.94;10341134;28;20046;-77
2023/04/01 17:26:46;;;;;;;7.07;4.55;;;;;;;7.81;100.00;100004.41;10344203;28;20092;-76
2023/04/01 17:32:05;;;;;;;7.07;4.65;;;;;;;7.81;100.00;100007.00;10360040;28;20038;-76
2023/04/01 17:37:42;;;;;;;7.00;4.18;;;;;;;7.82;100.00;100014.00;10361409;28;20054;-76
2023/04/01 17:42:47;;;;;;;6.57;4.43;;;;;;;7.77;100.00;100028.53;10348374;28;20065;-77
2023/04/01 17:48:06;;;;;;;11.13;5.15;;;;;;;7.74;100.00;100031.00;10362617;28;20048;-76
2023/04/01 17:53:16;;;;;;;8.00;4.93;;;;;;;7.71;100.00;100033.47;10366746;28;20111;-77
2023/04/01 17:58:20;;;;;;;9.02;4.78;;;;;;;7.64;100.00;100042.72;10364627;28;20050;-75
2023/04/01 18:03:45;;;;;;;9.90;5.78;;;;;;;7.63;100.00;100044.41;10354518;28;20108;-76
2023/04/01 18:08:56;;;;;;;7.93;5.75;;;;;;;7.65;100.00;100049.72;10372992;28;20512;-76
2023/04/01 18:14:18;;;;;;;8.63;6.20;;;;;;;7.59;100.00;100063.34;10364854;28;20037;-75
2023/04/01 18:19:30;;;;;;;8.25;5.35;;;;;;;7.58;100.00;100074.56;10366002;28;20125;-75
2023/04/01 18:24:35;;;;;;;;;;;;;;;7.54;100.00;100084.78;10360629;28;20832;-76
2023/04/01 18:29:59;;;;;;;9.55;6.43;;;;;;;7.57;100.00;100090.13;10369067;28;20344;-74
2023/04/01 18:35:12;;;;;;;9.25;7.57;;;;;;;7.52;100.00;100095.09;10352226;28;20050;-76
2023/04/01 18:40:25;;;;;;;11.70;7.70;;;;;;;7.51;100.00;100105.47;10380310;28;20097;-75
2023/04/01 18:45:32;;;;;;;14.15;9.30;;;;;;;7.45;100.00;100099.16;10360369;28;20547;-76
2023/04/01 18:50:36;;;;;;;11.43;8.18;;;;;;;7.46;100.00;100106.13;10360007;28;20052;-76
2023/04/01 18:55:37;;;;;;;14.05;8.55;;;;;;;7.45;100.00;100119.97;10347597;28;20041;-75
2023/04/01 19:00:47;;;;;;;12.45;9.38;;;;;;;7.44;100.00;100127.69;10385136;28;20065;-76
2023/04/01 19:05:50;;;;;;;15.77;11.02;;;;;;;7.46;100.00;100123.47;10363597;28;20038;-76
2023/04/01 19:10:50;;;;;;;16.13;10.55;;;;;;;7.49;100.00;100144.44;10362175;28;20041;-76
2023/04/01 19:16:04;;;;;;;17.55;11.32;;;;;;;7.52;100.00;100149.78;10361749;28;20042;-77
2023/04/01 19:21:16;;;;;;;16.65;11.38;;;;;;;7.60;100.00;100160.59;10358844;28;20046;-76
2023/04/01 19:26:38;;;;;;;17.53;11.43;;;;;;;7.74;100.00;100159.53;10359247;28;20042;-76
2023/04/01 19:31:52;;;;;;;11.77;8.18;;;;;;;7.99;100.00;100178.03;10359858;28;20280;-75
2023/04/01 19:37:10;;;;;;;9.05;6.07;;;;;;;8.03;100.00;100174.75;10358221;28;20038;-76
2023/04/01 19:42:44;;;;;;;10.30;5.70;;;;;;;8.03;100.00;100187.78;10369092;28;20038;-75
2023/04/01 19:47:57;;;;;;;7.35;5.13;;;;;;;8.03;100.00;100209.53;10360013;28;20489;-75
2023/04/01 19:52:59;;;;;;;9.18;6.50;;;;;;;8.05;100.00;100207.00;10357780;28;20038;-76
2023/04/01 19:58:18;;;;;;;7.82;5.72;;;;;;;8.00;100.00;100214.59;10362047;28;20040;-76
2023/04/01 20:03:53;;;;;;;7.90;5.70;;;;;;;7.97;100.00;100229.19;10340780;28;20064;-75
2023/04/01 20:08:57;;;;;;;7.68;5.03;;;;;;;7.87;100.00;100241.78;10309964;28;20096;-77
2023/04/01 20:14:09;;;;;;;11.82;7.25;;;;;;;7.79;100.00;100246.63;10359520;28;20042;-75
2023/04/01 20:19:10;;;;;;;8.18;5.07;;;;;;;7.76;100.00;100267.31;10383663;28;20045;-75
2023/04/01 20:24:13;;;;;;;7.90;5.55;;;;;;;7.75;100.00;100275.03;10341587;28;20044;-75
2023/04/01 20:29:56;;;;;;;12.02;5.45;;;;;;;7.73;100.00;100292.31;10392771;28;20052;-76
2023/04/01 20:35:18;;;;;;;10.98;7.70;;;;;;;7.71;100.00;100294.84;10335101;28;20047;-75
2023/04/01 20:40:24;;;;;;;11.65;8.00;;;;;;;7.68;100.00;100309.41;10359891;28;20402;-76
2023/04/01 20:45:28;;;;;;;11.57;7.35;;;;;;;7.62;100.00;100323.91;10358950;28;20046;-76
2023/04/01 20:50:37;;;;;;;17.42;7.90;;;;;;;7.57;100.00;100334.94;10350214;28;20121;-75
2023/04/01 20:55:46;;;;;;;9.32;6.43;;;;;;;7.51;100.00;100351.13;10317141;28;20041;-75
2023/04/01 21:01:06;;;;;;;10.68;6.40;;;;;;;7.48;100.00;100356.16;10371457;28;20042;-75
2023/04/01 21:06:10;;;;;;;11.18;7.93;;;;;;;7.44;100.00;100356.81;10380305;28;20040;-76
2023/04/01 21:11:15;;;;;;;8.77;6.82;;;;;;;7.41;100.00;100367.06;10376706;28;20127;-76
2023/04/01 21:16:31;;;;;;;10.50;7.18;;;;;;;7.37;100.00;100384.25;10364857;28;20490;-76
2023/04/01 21:21:50;;;;;;;9.82;7.95;;;;;;;7.33;100.00;100390.13;10366230;28;20410;-77
2023/04/01 21:27:10;;;;;;;13.68;9.60;;;;;;;7.29;100.00;100396.84;10387562;28;20052;-76
2023/04/01 21:32:30;;;;;;;10.45;8.93;;;;;;;7.31;100.00;100408.25;10364765;28;20125;-76
2023/04/01 21:37:43;;;;;;;7.93;5.72;;;;;;;7.29;100.00;100424.63;10365394;28;20053;-76
2023/04/01 21:43:18;;;;;;;9.27;6.38;;;;;;;7.25;100.00;100433.06;10363269;28;20496;-76
2023/04/01 21:48:42;;;;;;;8.63;5.10;;;;;;;7.18;100.00;100450.03;10357571;28;20041;-76
2023/04/01 21:53:55;;;;;;;9.18;6.45;;;;;;;7.06;100.00;100455.50;10364786;28;20050;-76
2023/04/01 21:59:14;;;;;;;7.20;5.93;;;;;;;6.96;100.00;100472.28;10361780;28;20405;-76
2023/04/01 22:04:44;;;;;;;8.93;7.30;;;;;;;6.85;100.00;100481.19;10364111;28;20137;-77
2023/04/01 22:09:53;;;;;;;7.35;5.35;;;;;;;6.77;100.00;100493.78;10348031;28;20038;-77
2023/04/01 22:14:58;;;;;;;9.93;6.63;;;;;;;6.68;100.00;100509.72;10361507;28;20083;-76
2023/04/01 22:20:13;;;;;;;8.93;5.97;;;;;;;6.58;100.00;100512.59;10378189;28;20065;-76
2023/04/01 22:25:30;;;;;;;6.25;3.88;;;;;;;6.56;100.00;100530.75;10391438;28;20399;-76
2023/04/01 22:30:42;;;;;;;8.25;4.82;;;;;;;6.55;100.00;100534.16;10347191;28;20030;-75
2023/04/01 22:36:01;;;;;;;8.70;6.63;;;;;;;6.56;100.00;100545.44;10344477;28;20038;-76
2023/04/01 22:41:27;;;;;;;7.30;4.50;;;;;;;6.52;100.00;100548.66;10360785;28;20042;-76
2023/04/01 22:46:30;;;;;;;7.25;5.47;;;;;;;6.51;100.00;100568.56;10376664;28;20036;-77
2023/04/01 22:51:41;;;;;;;9.20;6.40;;;;;;;6.50;100.00;100589.28;10386121;28;20100;-76
2023/04/01 22:56:55;;;;;;;7.47;5.53;;;;;;;6.39;100.00;100571.31;10374430;28;20038;-76
2023/04/01 23:02:10;;;;;;;13.40;9.15;;;;;;;6.30;100.00;100600.28;10345312;28;20131;-76
2023/04/01 23:07:35;;;;;;;11.30;8.50;;;;;;;6.19;100.00;100595.22;10343948;28;20042;-76
2023/04/01 23:12:35;;;;;;;9.48;6.13;;;;;;;6.04;100.00;100619.47;10362409;28;20041;-76
2023/04/01 23:17:58;;;;;;;10.15;6.57;;;;;;;6.03;100.00;100620.25;10342119;28;20125;-76
2023/04/01 23:23:10;;;;;;;8.10;5.70;;;;;;;6.07;100.00;100634.34;10391209;28;20175;-76
2023/04/01 23:28:13;;;;;;;7.60;6.22;;;;;;;6.10;100.00;100648.41;10365214;28;20132;-75
2023/04/01 23:33:19;;;;;;;11.88;7.05;;;;;;;6.13;100.00;100656.41;10361719;28;20389;-75
2023/04/01 23:38:22;;;;;;;12.45;8.43;;;;;;;6.14;100.00;100668.59;10346279;28;20105;-76
2023/04/01 23:43:31;;;;;;;8.02;6.25;;;;;;;6.02;100.00;100675.63;10356828;28;20045;-76
2023/04/01 23:48:40;;;;;;;11.25;7.22;;;;;;;5.91;100.00;100685.31;10361648;28;20497;-76
2023/04/01 23:53:43;;;;;;;10.77;6.93;;;;;;;5.89;100.00;100697.31;10354664;28;20851;-75
2023/04/01 23:58:46;;;;;;;13.95;9.60;;;;;;;5.85;100.00;100706.59;10340971;28;20073;-76
